Back to Top

Language: 

My Weather Underground Personal Weather Station Historical Data with Graphs...

Delerius Weather Station Historical Data
Daily Summary for March 8, 2017 Units:  Both    English   Metric
« Previous Day
Next Day »
Daily Weekly Monthly Yearly Custom
  High: Low: Average:
Temperature: 55.1 °F /  12.8 °C 44.0 °F /  6.7 °C 48.7 °F /  9.3 °C
Dew Point: 48.2 °F /  9 °C 38.0 °F /  3.3 °C 43.2 °F /  6.2 °C
Humidity: 95 % 53 % 82 %
Wind Speed: 19.0 mph /  30.6 km/h - 9.6 mph /  15.4 km/h
Wind Gust: 30.0 mph /  48.3 km/h - -
Wind:- - WSW
Pressure: 29.91 in /  1012.8 hPa 29.62 in /  1002.9 hPa -
Precipitation: 0.05 in /  1.27 mm    
Historical Graphs
 
 
Tabular Data for March 8, 2017
Time Temperature Dew Point Pressure Wind Wind Speed Wind Gust Humidity Rainfall Rate (Hourly) solar Conditions
00:05 45.1 °F /  7.3 °C 42.3 °F /  5.7 °C 29.77 in /  1008 hPa South 11.0 mph /  17.7 km/h 28.0 mph /  45.1 km/h 90 % 0.00 in /  0 mm 0 W/m2
00:15 45.1 °F /  7.3 °C 42.3 °F /  5.7 °C 29.76 in /  1007.7 hPa South 13.0 mph /  20.9 km/h 30.0 mph /  48.3 km/h 90 % 0.00 in /  0 mm 0 W/m2
00:20 45.1 °F /  7.3 °C 42.3 °F /  5.7 °C 29.75 in /  1007.3 hPa SW 14.0 mph /  22.5 km/h 14.0 mph /  22.5 km/h 90 % 0.00 in /  0 mm 0 W/m2
00:25 45.1 °F /  7.3 °C 42.6 °F /  5.9 °C 29.75 in /  1007.3 hPa SSW 15.0 mph /  24.1 km/h 20.0 mph /  32.2 km/h 91 % 0.00 in /  0 mm 0 W/m2
00:30 45.0 °F /  7.2 °C 42.5 °F /  5.8 °C 29.74 in /  1007 hPa SSW 14.0 mph /  22.5 km/h 14.0 mph /  22.5 km/h 91 % 0.00 in /  0 mm 0 W/m2
00:40 45.0 °F /  7.2 °C 42.5 °F /  5.8 °C 29.74 in /  1007 hPa SSW 12.0 mph /  19.3 km/h 12.0 mph /  19.3 km/h 91 % 0.00 in /  0 mm 0 W/m2
00:45 45.0 °F /  7.2 °C 42.8 °F /  6 °C 29.74 in /  1007 hPa SSW 12.0 mph /  19.3 km/h 12.0 mph /  19.3 km/h 92 % 0.00 in /  0 mm 0 W/m2
00:50 45.0 °F /  7.2 °C 42.5 °F /  5.8 °C 29.73 in /  1006.7 hPa SW 11.0 mph /  17.7 km/h 11.0 mph /  17.7 km/h 91 % 0.00 in /  0 mm 0 W/m2
00:55 45.0 °F /  7.2 °C 42.8 °F /  6 °C 29.72 in /  1006.3 hPa South 12.0 mph /  19.3 km/h 14.0 mph /  22.5 km/h 92 % 0.00 in /  0 mm 0 W/m2
01:00 45.1 °F /  7.3 °C 42.9 °F /  6.1 °C 29.72 in /  1006.3 hPa SW 13.0 mph /  20.9 km/h 13.0 mph /  20.9 km/h 92 % 0.00 in /  0 mm 0 W/m2
01:10 45.1 °F /  7.3 °C 42.9 °F /  6.1 °C 29.71 in /  1006 hPa SSW 14.0 mph /  22.5 km/h 22.0 mph /  35.4 km/h 92 % 0.00 in /  0 mm 0 W/m2
01:15 45.0 °F /  7.2 °C 42.8 °F /  6 °C 29.70 in /  1005.6 hPa South 13.0 mph /  20.9 km/h 22.0 mph /  35.4 km/h 92 % 0.04 in /  1.02 mm 0 W/m2
01:20 45.0 °F /  7.2 °C 42.8 °F /  6 °C 29.69 in /  1005.3 hPa SSW 14.0 mph /  22.5 km/h 22.0 mph /  35.4 km/h 92 % 0.04 in /  1.02 mm 0 W/m2
01:30 44.8 °F /  7.1 °C 42.9 °F /  6.1 °C 29.69 in /  1005.3 hPa SW 13.0 mph /  20.9 km/h 13.0 mph /  20.9 km/h 93 % 0.05 in /  1.27 mm 0 W/m2
01:35 44.8 °F /  7.1 °C 42.9 °F /  6.1 °C 29.69 in /  1005.3 hPa SSW 13.0 mph /  20.9 km/h 22.0 mph /  35.4 km/h 93 % 0.05 in /  1.27 mm 0 W/m2
01:45 44.8 °F /  7.1 °C 42.9 °F /  6.1 °C 29.68 in /  1005 hPa SW 13.0 mph /  20.9 km/h 22.0 mph /  35.4 km/h 93 % 0.00 in /  0 mm 0 W/m2
01:50 44.8 °F /  7.1 °C 43.2 °F /  6.2 °C 29.68 in /  1005 hPa SSW 14.0 mph /  22.5 km/h 22.0 mph /  35.4 km/h 94 % 0.00 in /  0 mm 0 W/m2
01:55 44.9 °F /  7.2 °C 43.3 °F /  6.3 °C 29.68 in /  1005 hPa SSW 14.0 mph /  22.5 km/h 22.0 mph /  35.4 km/h 94 % 0.00 in /  0 mm 0 W/m2
02:00 45.0 °F /  7.2 °C 43.4 °F /  6.3 °C 29.68 in /  1005 hPa SW 14.0 mph /  22.5 km/h 14.0 mph /  22.5 km/h 94 % 0.00 in /  0 mm 0 W/m2
02:05 45.1 °F /  7.3 °C 43.5 °F /  6.4 °C 29.68 in /  1005 hPa SSW 13.0 mph /  20.9 km/h 22.0 mph /  35.4 km/h 94 % 0.00 in /  0 mm 0 W/m2
02:10 45.2 °F /  7.3 °C 43.6 °F /  6.4 °C 29.68 in /  1005 hPa SW 13.0 mph /  20.9 km/h 13.0 mph /  20.9 km/h 94 % 0.00 in /  0 mm 0 W/m2
02:20 45.3 °F /  7.4 °C 43.7 °F /  6.5 °C 29.68 in /  1005 hPa SW 12.0 mph /  19.3 km/h 22.0 mph /  35.4 km/h 94 % 0.00 in /  0 mm 0 W/m2
02:25 45.4 °F /  7.4 °C 43.8 °F /  6.6 °C 29.68 in /  1005 hPa SSW 12.0 mph /  19.3 km/h 22.0 mph /  35.4 km/h 94 % 0.00 in /  0 mm 0 W/m2
02:30 45.5 °F /  7.5 °C 43.9 °F /  6.6 °C 29.68 in /  1005 hPa SW 13.0 mph /  20.9 km/h 13.0 mph /  20.9 km/h 94 % 0.00 in /  0 mm 0 W/m2
02:35 45.6 °F /  7.6 °C 44.0 °F /  6.7 °C 29.68 in /  1005 hPa SW 12.0 mph /  19.3 km/h 22.0 mph /  35.4 km/h 94 % 0.00 in /  0 mm 0 W/m2
02:40 45.7 °F /  7.6 °C 44.1 °F /  6.7 °C 29.67 in /  1004.6 hPa SW 11.0 mph /  17.7 km/h 11.0 mph /  17.7 km/h 94 % 0.00 in /  0 mm 0 W/m2
02:50 46.0 °F /  7.8 °C 44.4 °F /  6.9 °C 29.67 in /  1004.6 hPa SW 11.0 mph /  17.7 km/h 22.0 mph /  35.4 km/h 94 % 0.00 in /  0 mm 0 W/m2
03:00 46.2 °F /  7.9 °C 44.8 °F /  7.1 °C 29.66 in /  1004.3 hPa WSW 10.0 mph /  16.1 km/h 22.0 mph /  35.4 km/h 95 % 0.00 in /  0 mm 0 W/m2
03:05 46.4 °F /  8 °C 45.0 °F /  7.2 °C 29.66 in /  1004.3 hPa SW 9.0 mph /  14.5 km/h 22.0 mph /  35.4 km/h 95 % 0.00 in /  0 mm 0 W/m2
03:10 46.6 °F /  8.1 °C 45.2 °F /  7.3 °C 29.66 in /  1004.3 hPa SSW 8.0 mph /  12.9 km/h 22.0 mph /  35.4 km/h 95 % 0.00 in /  0 mm 0 W/m2
03:15 46.7 °F /  8.2 °C 45.1 °F /  7.3 °C 29.66 in /  1004.3 hPa SW 9.0 mph /  14.5 km/h 22.0 mph /  35.4 km/h 94 % 0.00 in /  0 mm 0 W/m2
03:25 47.2 °F /  8.4 °C 45.6 °F /  7.6 °C 29.65 in /  1003.9 hPa SW 10.0 mph /  16.1 km/h 22.0 mph /  35.4 km/h 94 % 0.00 in /  0 mm 0 W/m2
03:30 47.4 °F /  8.6 °C 45.8 °F /  7.7 °C 29.64 in /  1003.6 hPa SW 9.0 mph /  14.5 km/h 22.0 mph /  35.4 km/h 94 % 0.00 in /  0 mm 0 W/m2
03:35 47.5 °F /  8.6 °C 45.9 °F /  7.7 °C 29.64 in /  1003.6 hPa SW 9.0 mph /  14.5 km/h 22.0 mph /  35.4 km/h 94 % 0.00 in /  0 mm 0 W/m2
03:40 47.5 °F /  8.6 °C 45.9 °F /  7.7 °C 29.64 in /  1003.6 hPa SW 8.0 mph /  12.9 km/h 8.0 mph /  12.9 km/h 94 % 0.00 in /  0 mm 0 W/m2
03:45 47.8 °F /  8.8 °C 46.2 °F /  7.9 °C 29.63 in /  1003.3 hPa SSW 8.0 mph /  12.9 km/h 22.0 mph /  35.4 km/h 94 % 0.00 in /  0 mm 0 W/m2
03:50 47.9 °F /  8.8 °C 46.3 °F /  7.9 °C 29.63 in /  1003.3 hPa SW 8.0 mph /  12.9 km/h 22.0 mph /  35.4 km/h 94 % 0.00 in /  0 mm 0 W/m2
04:00 48.2 °F /  9 °C 46.6 °F /  8.1 °C 29.63 in /  1003.3 hPa SW 8.0 mph /  12.9 km/h 8.0 mph /  12.9 km/h 94 % 0.00 in /  0 mm 0 W/m2
04:05 48.3 °F /  9.1 °C 46.7 °F /  8.2 °C 29.63 in /  1003.3 hPa SW 8.0 mph /  12.9 km/h 22.0 mph /  35.4 km/h 94 % 0.00 in /  0 mm 0 W/m2
04:10 48.7 °F /  9.3 °C 47.1 °F /  8.4 °C 29.63 in /  1003.3 hPa SW 8.0 mph /  12.9 km/h 22.0 mph /  35.4 km/h 94 % 0.00 in /  0 mm 0 W/m2
04:20 49.4 °F /  9.7 °C 47.7 °F /  8.7 °C 29.62 in /  1002.9 hPa WSW 8.0 mph /  12.9 km/h 8.0 mph /  12.9 km/h 94 % 0.00 in /  0 mm 0 W/m2
04:25 49.7 °F /  9.8 °C 48.0 °F /  8.9 °C 29.63 in /  1003.3 hPa West 9.0 mph /  14.5 km/h 9.0 mph /  14.5 km/h 94 % 0.00 in /  0 mm 0 W/m2
04:35 50.0 °F /  10 °C 48.1 °F /  8.9 °C 29.63 in /  1003.3 hPa WSW 9.0 mph /  14.5 km/h 22.0 mph /  35.4 km/h 93 % 0.00 in /  0 mm 0 W/m2
04:40 50.1 °F /  10.1 °C 48.2 °F /  9 °C 29.63 in /  1003.3 hPa WSW 8.0 mph /  12.9 km/h 22.0 mph /  35.4 km/h 93 % 0.00 in /  0 mm 0 W/m2
04:45 50.2 °F /  10.1 °C 48.0 °F /  8.9 °C 29.63 in /  1003.3 hPa West 9.0 mph /  14.5 km/h 22.0 mph /  35.4 km/h 92 % 0.00 in /  0 mm 0 W/m2
04:50 50.3 °F /  10.2 °C 48.1 °F /  8.9 °C 29.63 in /  1003.3 hPa WSW 9.0 mph /  14.5 km/h 9.0 mph /  14.5 km/h 92 % 0.00 in /  0 mm 0 W/m2
04:55 50.2 °F /  10.1 °C 48.0 °F /  8.9 °C 29.63 in /  1003.3 hPa WNW 8.0 mph /  12.9 km/h 22.0 mph /  35.4 km/h 92 % 0.00 in /  0 mm 0 W/m2
05:00 50.1 °F /  10.1 °C 47.9 °F /  8.8 °C 29.63 in /  1003.3 hPa West 9.0 mph /  14.5 km/h 9.0 mph /  14.5 km/h 92 % 0.00 in /  0 mm 0 W/m2
05:05 50.1 °F /  10.1 °C 47.9 °F /  8.8 °C 29.64 in /  1003.6 hPa West 10.0 mph /  16.1 km/h 10.0 mph /  16.1 km/h 92 % 0.00 in /  0 mm 0 W/m2
05:10 50.0 °F /  10 °C 47.8 °F /  8.8 °C 29.64 in /  1003.6 hPa West 10.0 mph /  16.1 km/h 10.0 mph /  16.1 km/h 92 % 0.00 in /  0 mm 0 W/m2
05:15 50.0 °F /  10 °C 47.8 °F /  8.8 °C 29.64 in /  1003.6 hPa WSW 11.0 mph /  17.7 km/h 14.0 mph /  22.5 km/h 92 % 0.00 in /  0 mm 0 W/m2
05:20 49.9 °F /  9.9 °C 47.7 °F /  8.7 °C 29.64 in /  1003.6 hPa West 13.0 mph /  20.9 km/h 22.0 mph /  35.4 km/h 92 % 0.00 in /  0 mm 0 W/m2
05:25 50.0 °F /  10 °C 47.8 °F /  8.8 °C 29.64 in /  1003.6 hPa West 14.0 mph /  22.5 km/h 22.0 mph /  35.4 km/h 92 % 0.00 in /  0 mm 0 W/m2
05:35 49.8 °F /  9.9 °C 47.6 °F /  8.7 °C 29.64 in /  1003.6 hPa WNW 15.0 mph /  24.1 km/h 22.0 mph /  35.4 km/h 92 % 0.00 in /  0 mm 0 W/m2
05:45 49.8 °F /  9.9 °C 47.6 °F /  8.7 °C 29.65 in /  1003.9 hPa WNW 12.0 mph /  19.3 km/h 22.0 mph /  35.4 km/h 92 % 0.00 in /  0 mm 0 W/m2
05:50 49.7 °F /  9.8 °C 47.5 °F /  8.6 °C 29.65 in /  1003.9 hPa WNW 11.0 mph /  17.7 km/h 22.0 mph /  35.4 km/h 92 % 0.00 in /  0 mm 0 W/m2
05:55 49.7 °F /  9.8 °C 47.5 °F /  8.6 °C 29.65 in /  1003.9 hPa West 10.0 mph /  16.1 km/h 22.0 mph /  35.4 km/h 92 % 0.00 in /  0 mm 0 W/m2
06:00 49.6 °F /  9.8 °C 47.4 °F /  8.6 °C 29.65 in /  1003.9 hPa West 8.0 mph /  12.9 km/h 22.0 mph /  35.4 km/h 92 % 0.00 in /  0 mm 0 W/m2
06:05 49.5 °F /  9.7 °C 47.0 °F /  8.3 °C 29.65 in /  1003.9 hPa WNW 8.0 mph /  12.9 km/h 22.0 mph /  35.4 km/h 91 % 0.00 in /  0 mm 0 W/m2
06:15 49.3 °F /  9.6 °C 46.8 °F /  8.2 °C 29.67 in /  1004.6 hPa NNW 7.0 mph /  11.3 km/h 22.0 mph /  35.4 km/h 91 % 0.00 in /  0 mm 0 W/m2
06:20 49.2 °F /  9.6 °C 46.7 °F /  8.2 °C 29.67 in /  1004.6 hPa NW 6.0 mph /  9.7 km/h 22.0 mph /  35.4 km/h 91 % 0.00 in /  0 mm 0 W/m2
06:25 49.1 °F /  9.5 °C 46.6 °F /  8.1 °C 29.67 in /  1004.6 hPa NW 7.0 mph /  11.3 km/h 22.0 mph /  35.4 km/h 91 % 0.00 in /  0 mm 0 W/m2
06:30 49.0 °F /  9.4 °C 46.5 °F /  8.1 °C 29.68 in /  1005 hPa West 11.0 mph /  17.7 km/h 22.0 mph /  35.4 km/h 91 % 0.00 in /  0 mm 0 W/m2
06:35 49.1 °F /  9.5 °C 46.3 °F /  7.9 °C 29.68 in /  1005 hPa WNW 13.0 mph /  20.9 km/h 22.0 mph /  35.4 km/h 90 % 0.00 in /  0 mm 0 W/m2
06:45 49.3 °F /  9.6 °C 45.9 °F /  7.7 °C 29.68 in /  1005 hPa WNW 15.0 mph /  24.1 km/h 18.0 mph /  29 km/h 88 % 0.00 in /  0 mm 5 W/m2
06:55 49.3 °F /  9.6 °C 45.6 °F /  7.6 °C 29.68 in /  1005 hPa West 15.0 mph /  24.1 km/h 22.0 mph /  35.4 km/h 87 % 0.00 in /  0 mm 9 W/m2
07:00 49.2 °F /  9.6 °C 45.5 °F /  7.5 °C 29.68 in /  1005 hPa West 14.0 mph /  22.5 km/h 14.0 mph /  22.5 km/h 87 % 0.00 in /  0 mm 9 W/m2
07:05 49.1 °F /  9.5 °C 45.4 °F /  7.4 °C 29.68 in /  1005 hPa WNW 14.0 mph /  22.5 km/h 22.0 mph /  35.4 km/h 87 % 0.00 in /  0 mm 11 W/m2
07:10 48.9 °F /  9.4 °C 45.2 °F /  7.3 °C 29.69 in /  1005.3 hPa NW 13.0 mph /  20.9 km/h 22.0 mph /  35.4 km/h 87 % 0.00 in /  0 mm 21 W/m2
07:20 48.6 °F /  9.2 °C 44.9 °F /  7.2 °C 29.69 in /  1005.3 hPa WNW 16.0 mph /  25.7 km/h 22.0 mph /  35.4 km/h 87 % 0.00 in /  0 mm 32 W/m2
07:25 48.5 °F /  9.2 °C 44.8 °F /  7.1 °C 29.68 in /  1005 hPa West 17.0 mph /  27.4 km/h 22.0 mph /  35.4 km/h 87 % 0.00 in /  0 mm 28 W/m2
07:30 48.4 °F /  9.1 °C 44.7 °F /  7.1 °C 29.68 in /  1005 hPa WNW 17.0 mph /  27.4 km/h 17.0 mph /  27.4 km/h 87 % 0.00 in /  0 mm 32 W/m2
07:35 48.2 °F /  9 °C 44.5 °F /  6.9 °C 29.69 in /  1005.3 hPa WNW 16.0 mph /  25.7 km/h 22.0 mph /  35.4 km/h 87 % 0.00 in /  0 mm 30 W/m2
07:40 48.1 °F /  8.9 °C 44.4 °F /  6.9 °C 29.69 in /  1005.3 hPa West 17.0 mph /  27.4 km/h 17.0 mph /  27.4 km/h 87 % 0.00 in /  0 mm 33 W/m2
07:45 48.0 °F /  8.9 °C 44.3 °F /  6.8 °C 29.69 in /  1005.3 hPa WNW 18.0 mph /  29 km/h 20.0 mph /  32.2 km/h 87 % 0.00 in /  0 mm 58 W/m2
07:55 47.9 °F /  8.8 °C 44.2 °F /  6.8 °C 29.71 in /  1006 hPa WNW 19.0 mph /  30.6 km/h 26.0 mph /  41.8 km/h 87 % 0.00 in /  0 mm 62 W/m2
08:00 47.8 °F /  8.8 °C 44.1 °F /  6.7 °C 29.71 in /  1006 hPa West 18.0 mph /  29 km/h 18.0 mph /  29 km/h 87 % 0.00 in /  0 mm 62 W/m2
08:05 47.8 °F /  8.8 °C 44.1 °F /  6.7 °C 29.72 in /  1006.3 hPa West 17.0 mph /  27.4 km/h 22.0 mph /  35.4 km/h 87 % 0.00 in /  0 mm 65 W/m2
08:15 47.9 °F /  8.8 °C 43.9 °F /  6.6 °C 29.72 in /  1006.3 hPa WNW 15.0 mph /  24.1 km/h 22.0 mph /  35.4 km/h 86 % 0.00 in /  0 mm 63 W/m2
08:20 47.9 °F /  8.8 °C 43.9 °F /  6.6 °C 29.73 in /  1006.7 hPa WNW 15.0 mph /  24.1 km/h 15.0 mph /  24.1 km/h 86 % 0.00 in /  0 mm 62 W/m2
08:30 47.8 °F /  8.8 °C 43.8 °F /  6.6 °C 29.73 in /  1006.7 hPa West 12.0 mph /  19.3 km/h 22.0 mph /  35.4 km/h 86 % 0.00 in /  0 mm 79 W/m2
08:35 47.7 °F /  8.7 °C 43.7 °F /  6.5 °C 29.74 in /  1007 hPa WNW 13.0 mph /  20.9 km/h 25.0 mph /  40.2 km/h 86 % 0.00 in /  0 mm 86 W/m2
08:40 47.7 °F /  8.7 °C 43.7 °F /  6.5 °C 29.73 in /  1006.7 hPa West 15.0 mph /  24.1 km/h 22.0 mph /  35.4 km/h 86 % 0.00 in /  0 mm 102 W/m2
08:45 47.7 °F /  8.7 °C 44.0 °F /  6.7 °C 29.74 in /  1007 hPa West 14.0 mph /  22.5 km/h 22.0 mph /  35.4 km/h 87 % 0.00 in /  0 mm 118 W/m2
08:50 47.6 °F /  8.7 °C 43.9 °F /  6.6 °C 29.73 in /  1006.7 hPa West 13.0 mph /  20.9 km/h 13.0 mph /  20.9 km/h 87 % 0.00 in /  0 mm 93 W/m2
08:55 47.5 °F /  8.6 °C 43.8 °F /  6.6 °C 29.73 in /  1006.7 hPa WNW 13.0 mph /  20.9 km/h 22.0 mph /  35.4 km/h 87 % 0.00 in /  0 mm 83 W/m2
09:00 47.5 °F /  8.6 °C 43.8 °F /  6.6 °C 29.73 in /  1006.7 hPa WNW 13.0 mph /  20.9 km/h 13.0 mph /  20.9 km/h 87 % 0.00 in /  0 mm 137 W/m2
09:05 47.5 °F /  8.6 °C 43.8 °F /  6.6 °C 29.73 in /  1006.7 hPa WNW 13.0 mph /  20.9 km/h 15.0 mph /  24.1 km/h 87 % 0.00 in /  0 mm 148 W/m2
09:10 47.6 °F /  8.7 °C 43.9 °F /  6.6 °C 29.73 in /  1006.7 hPa NW 13.0 mph /  20.9 km/h 22.0 mph /  35.4 km/h 87 % 0.00 in /  0 mm 125 W/m2
09:15 47.7 °F /  8.7 °C 43.7 °F /  6.5 °C 29.73 in /  1006.7 hPa WNW 13.0 mph /  20.9 km/h 22.0 mph /  35.4 km/h 86 % 0.00 in /  0 mm 127 W/m2
09:20 47.7 °F /  8.7 °C 44.0 °F /  6.7 °C 29.73 in /  1006.7 hPa West 13.0 mph /  20.9 km/h 13.0 mph /  20.9 km/h 87 % 0.00 in /  0 mm 148 W/m2
09:30 47.8 °F /  8.8 °C 43.8 °F /  6.6 °C 29.74 in /  1007 hPa West 13.0 mph /  20.9 km/h 22.0 mph /  35.4 km/h 86 % 0.00 in /  0 mm 113 W/m2
09:40 47.9 °F /  8.8 °C 43.9 °F /  6.6 °C 29.75 in /  1007.3 hPa WNW 14.0 mph /  22.5 km/h 14.0 mph /  22.5 km/h 86 % 0.00 in /  0 mm 121 W/m2
09:45 48.0 °F /  8.9 °C 44.0 °F /  6.7 °C 29.75 in /  1007.3 hPa NW 13.0 mph /  20.9 km/h 22.0 mph /  35.4 km/h 86 % 0.00 in /  0 mm 135 W/m2
09:50 48.1 °F /  8.9 °C 44.1 °F /  6.7 °C 29.75 in /  1007.3 hPa WNW 14.0 mph /  22.5 km/h 22.0 mph /  35.4 km/h 86 % 0.00 in /  0 mm 113 W/m2
09:55 48.2 °F /  9 °C 43.9 °F /  6.6 °C 29.75 in /  1007.3 hPa West 14.0 mph /  22.5 km/h 22.0 mph /  35.4 km/h 85 % 0.00 in /  0 mm 130 W/m2
10:00 48.3 °F /  9.1 °C 44.0 °F /  6.7 °C 29.75 in /  1007.3 hPa WSW 11.0 mph /  17.7 km/h 11.0 mph /  17.7 km/h 85 % 0.00 in /  0 mm 144 W/m2
10:10 48.5 °F /  9.2 °C 43.9 °F /  6.6 °C 29.76 in /  1007.7 hPa WNW 12.0 mph /  19.3 km/h 12.0 mph /  19.3 km/h 84 % 0.00 in /  0 mm 162 W/m2
10:15 48.7 °F /  9.3 °C 44.1 °F /  6.7 °C 29.77 in /  1008 hPa West 11.0 mph /  17.7 km/h 22.0 mph /  35.4 km/h 84 % 0.00 in /  0 mm 199 W/m2
10:20 48.8 °F /  9.3 °C 44.2 °F /  6.8 °C 29.77 in /  1008 hPa WSW 10.0 mph /  16.1 km/h 22.0 mph /  35.4 km/h 84 % 0.00 in /  0 mm 183 W/m2
10:25 49.0 °F /  9.4 °C 44.4 °F /  6.9 °C 29.77 in /  1008 hPa WNW 9.0 mph /  14.5 km/h 22.0 mph /  35.4 km/h 84 % 0.00 in /  0 mm 155 W/m2
10:30 49.1 °F /  9.5 °C 44.2 °F /  6.8 °C 29.78 in /  1008.4 hPa West 9.0 mph /  14.5 km/h 22.0 mph /  35.4 km/h 83 % 0.00 in /  0 mm 162 W/m2
10:40 49.3 °F /  9.6 °C 44.4 °F /  6.9 °C 29.78 in /  1008.4 hPa WNW 9.0 mph /  14.5 km/h 9.0 mph /  14.5 km/h 83 % 0.00 in /  0 mm 142 W/m2
10:45 49.4 °F /  9.7 °C 44.5 °F /  6.9 °C 29.78 in /  1008.4 hPa West 9.0 mph /  14.5 km/h 22.0 mph /  35.4 km/h 83 % 0.00 in /  0 mm 188 W/m2
10:50 49.5 °F /  9.7 °C 44.6 °F /  7 °C 29.78 in /  1008.4 hPa WNW 9.0 mph /  14.5 km/h 22.0 mph /  35.4 km/h 83 % 0.00 in /  0 mm 183 W/m2
10:55 49.6 °F /  9.8 °C 44.3 °F /  6.8 °C 29.77 in /  1008 hPa West 10.0 mph /  16.1 km/h 22.0 mph /  35.4 km/h 82 % 0.00 in /  0 mm 141 W/m2
11:00 49.6 °F /  9.8 °C 44.0 °F /  6.7 °C 29.78 in /  1008.4 hPa WNW 12.0 mph /  19.3 km/h 22.0 mph /  35.4 km/h 81 % 0.00 in /  0 mm 144 W/m2
11:10 49.7 °F /  9.8 °C 44.1 °F /  6.7 °C 29.78 in /  1008.4 hPa WNW 12.0 mph /  19.3 km/h 22.0 mph /  35.4 km/h 81 % 0.00 in /  0 mm 151 W/m2
11:15 49.8 °F /  9.9 °C 44.2 °F /  6.8 °C 29.78 in /  1008.4 hPa WNW 10.0 mph /  16.1 km/h 22.0 mph /  35.4 km/h 81 % 0.00 in /  0 mm 158 W/m2
11:25 49.9 °F /  9.9 °C 44.0 °F /  6.7 °C 29.79 in /  1008.7 hPa West 10.0 mph /  16.1 km/h 22.0 mph /  35.4 km/h 80 % 0.00 in /  0 mm 200 W/m2
11:30 50.1 °F /  10.1 °C 44.2 °F /  6.8 °C 29.79 in /  1008.7 hPa West 9.0 mph /  14.5 km/h 22.0 mph /  35.4 km/h 80 % 0.00 in /  0 mm 185 W/m2
11:35 50.2 °F /  10.1 °C 43.9 °F /  6.6 °C 29.79 in /  1008.7 hPa WNW 10.0 mph /  16.1 km/h 22.0 mph /  35.4 km/h 79 % 0.00 in /  0 mm 185 W/m2
11:40 50.2 °F /  10.1 °C 43.9 °F /  6.6 °C 29.80 in /  1009 hPa West 12.0 mph /  19.3 km/h 22.0 mph /  35.4 km/h 79 % 0.00 in /  0 mm 241 W/m2
11:50 50.4 °F /  10.2 °C 43.8 °F /  6.6 °C 29.81 in /  1009.4 hPa WNW 15.0 mph /  24.1 km/h 15.0 mph /  24.1 km/h 78 % 0.00 in /  0 mm 200 W/m2
11:55 50.4 °F /  10.2 °C 43.5 °F /  6.4 °C 29.81 in /  1009.4 hPa West 15.0 mph /  24.1 km/h 22.0 mph /  35.4 km/h 77 % 0.00 in /  0 mm 218 W/m2
12:00 50.4 °F /  10.2 °C 43.5 °F /  6.4 °C 29.81 in /  1009.4 hPa WNW 15.0 mph /  24.1 km/h 22.0 mph /  35.4 km/h 77 % 0.00 in /  0 mm 264 W/m2
12:05 50.5 °F /  10.3 °C 43.6 °F /  6.4 °C 29.82 in /  1009.7 hPa WSW 15.0 mph /  24.1 km/h 22.0 mph /  35.4 km/h 77 % 0.00 in /  0 mm 253 W/m2
12:10 50.7 °F /  10.4 °C 43.8 °F /  6.6 °C 29.82 in /  1009.7 hPa West 13.0 mph /  20.9 km/h 13.0 mph /  20.9 km/h 77 % 0.00 in /  0 mm 295 W/m2
12:20 50.9 °F /  10.5 °C 42.9 °F /  6.1 °C 29.83 in /  1010 hPa WNW 12.0 mph /  19.3 km/h 12.0 mph /  19.3 km/h 74 % 0.00 in /  0 mm 193 W/m2
12:25 50.8 °F /  10.4 °C 42.1 °F /  5.6 °C 29.83 in /  1010 hPa West 14.0 mph /  22.5 km/h 15.0 mph /  24.1 km/h 72 % 0.00 in /  0 mm 207 W/m2
12:30 50.7 °F /  10.4 °C 42.4 °F /  5.8 °C 29.83 in /  1010 hPa West 14.0 mph /  22.5 km/h 22.0 mph /  35.4 km/h 73 % 0.00 in /  0 mm 148 W/m2
12:35 50.7 °F /  10.4 °C 42.4 °F /  5.8 °C 29.84 in /  1010.4 hPa West 13.0 mph /  20.9 km/h 22.0 mph /  35.4 km/h 73 % 0.00 in /  0 mm 195 W/m2
12:45 50.7 °F /  10.4 °C 42.4 °F /  5.8 °C 29.84 in /  1010.4 hPa WNW 10.0 mph /  16.1 km/h 22.0 mph /  35.4 km/h 73 % 0.00 in /  0 mm 199 W/m2
12:55 51.1 °F /  10.6 °C 43.1 °F /  6.2 °C 29.84 in /  1010.4 hPa West 10.0 mph /  16.1 km/h 10.0 mph /  16.1 km/h 74 % 0.00 in /  0 mm 339 W/m2
13:00 51.4 °F /  10.8 °C 43.0 °F /  6.1 °C 29.84 in /  1010.4 hPa WNW 11.0 mph /  17.7 km/h 11.0 mph /  17.7 km/h 73 % 0.00 in /  0 mm 229 W/m2
13:05 51.6 °F /  10.9 °C 42.9 °F /  6.1 °C 29.84 in /  1010.4 hPa WNW 12.0 mph /  19.3 km/h 13.0 mph /  20.9 km/h 72 % 0.00 in /  0 mm 503 W/m2
13:10 52.2 °F /  11.2 °C 43.1 °F /  6.2 °C 29.84 in /  1010.4 hPa SW 15.0 mph /  24.1 km/h 15.0 mph /  24.1 km/h 71 % 0.00 in /  0 mm 573 W/m2
13:15 52.9 °F /  11.6 °C 43.0 °F /  6.1 °C 29.84 in /  1010.4 hPa WNW 16.0 mph /  25.7 km/h 16.0 mph /  25.7 km/h 69 % 0.00 in /  0 mm 640 W/m2
13:20 52.9 °F /  11.6 °C 43.0 °F /  6.1 °C 29.84 in /  1010.4 hPa West 16.0 mph /  25.7 km/h 22.0 mph /  35.4 km/h 69 % 0.00 in /  0 mm 172 W/m2
13:30 52.5 °F /  11.4 °C 43.0 °F /  6.1 °C 29.84 in /  1010.4 hPa West 14.0 mph /  22.5 km/h 22.0 mph /  35.4 km/h 70 % 0.00 in /  0 mm 313 W/m2
13:35 52.7 °F /  11.5 °C 43.6 °F /  6.4 °C 29.84 in /  1010.4 hPa WNW 14.0 mph /  22.5 km/h 22.0 mph /  35.4 km/h 71 % 0.00 in /  0 mm 675 W/m2
13:40 53.6 °F /  12 °C 43.7 °F /  6.5 °C 29.84 in /  1010.4 hPa West 14.0 mph /  22.5 km/h 22.0 mph /  35.4 km/h 69 % 0.00 in /  0 mm 701 W/m2
13:45 54.2 °F /  12.3 °C 43.5 °F /  6.4 °C 29.83 in /  1010 hPa WNW 14.0 mph /  22.5 km/h 22.0 mph /  35.4 km/h 67 % 0.00 in /  0 mm 647 W/m2
13:50 54.6 °F /  12.6 °C 43.5 °F /  6.4 °C 29.83 in /  1010 hPa WSW 15.0 mph /  24.1 km/h 22.0 mph /  35.4 km/h 66 % 0.00 in /  0 mm 612 W/m2
14:00 55.1 °F /  12.8 °C 43.1 °F /  6.2 °C 29.83 in /  1010 hPa West 15.0 mph /  24.1 km/h 22.0 mph /  35.4 km/h 64 % 0.00 in /  0 mm 568 W/m2
14:05 55.1 °F /  12.8 °C 42.3 °F /  5.7 °C 29.83 in /  1010 hPa West 13.0 mph /  20.9 km/h 22.0 mph /  35.4 km/h 62 % 0.00 in /  0 mm 483 W/m2
14:10 54.5 °F /  12.5 °C 41.7 °F /  5.4 °C 29.83 in /  1010 hPa West 14.0 mph /  22.5 km/h 22.0 mph /  35.4 km/h 62 % 0.00 in /  0 mm 91 W/m2
14:20 53.1 °F /  11.7 °C 40.4 °F /  4.7 °C 29.83 in /  1010 hPa WNW 14.0 mph /  22.5 km/h 22.0 mph /  35.4 km/h 62 % 0.00 in /  0 mm 90 W/m2
14:25 52.8 °F /  11.6 °C 40.1 °F /  4.5 °C 29.83 in /  1010 hPa WNW 13.0 mph /  20.9 km/h 22.0 mph /  35.4 km/h 62 % 0.00 in /  0 mm 197 W/m2
14:35 54.0 °F /  12.2 °C 41.3 °F /  5.2 °C 29.83 in /  1010 hPa West 12.0 mph /  19.3 km/h 22.0 mph /  35.4 km/h 62 % 0.00 in /  0 mm 469 W/m2
14:40 54.7 °F /  12.6 °C 40.6 °F /  4.8 °C 29.83 in /  1010 hPa West 10.0 mph /  16.1 km/h 10.0 mph /  16.1 km/h 59 % 0.00 in /  0 mm 371 W/m2
14:45 54.8 °F /  12.7 °C 38.5 °F /  3.6 °C 29.83 in /  1010 hPa West 11.0 mph /  17.7 km/h 11.0 mph /  17.7 km/h 54 % 0.00 in /  0 mm 329 W/m2
14:50 54.8 °F /  12.7 °C 38.0 °F /  3.3 °C 29.83 in /  1010 hPa West 13.0 mph /  20.9 km/h 22.0 mph /  35.4 km/h 53 % 0.00 in /  0 mm 353 W/m2
14:55 54.7 °F /  12.6 °C 38.8 °F /  3.8 °C 29.83 in /  1010 hPa West 12.0 mph /  19.3 km/h 22.0 mph /  35.4 km/h 55 % 0.00 in /  0 mm 258 W/m2
15:00 54.6 °F /  12.6 °C 39.7 °F /  4.3 °C 29.83 in /  1010 hPa SW 11.0 mph /  17.7 km/h 11.0 mph /  17.7 km/h 57 % 0.00 in /  0 mm 380 W/m2
15:10 54.8 °F /  12.7 °C 39.8 °F /  4.3 °C 29.83 in /  1010 hPa West 10.0 mph /  16.1 km/h 22.0 mph /  35.4 km/h 57 % 0.00 in /  0 mm 276 W/m2
15:15 54.8 °F /  12.7 °C 40.3 °F /  4.6 °C 29.83 in /  1010 hPa WSW 10.0 mph /  16.1 km/h 22.0 mph /  35.4 km/h 58 % 0.00 in /  0 mm 346 W/m2
15:20 55.0 °F /  12.8 °C 40.9 °F /  4.9 °C 29.83 in /  1010 hPa WSW 9.0 mph /  14.5 km/h 9.0 mph /  14.5 km/h 59 % 0.00 in /  0 mm 364 W/m2
15:25 55.0 °F /  12.8 °C 41.4 °F /  5.2 °C 29.83 in /  1010 hPa WSW 9.0 mph /  14.5 km/h 19.0 mph /  30.6 km/h 60 % 0.00 in /  0 mm 248 W/m2
15:30 54.2 °F /  12.3 °C 41.0 °F /  5 °C 29.83 in /  1010 hPa West 12.0 mph /  19.3 km/h 22.0 mph /  35.4 km/h 61 % 0.00 in /  0 mm 355 W/m2
15:40 54.0 °F /  12.2 °C 41.3 °F /  5.2 °C 29.83 in /  1010 hPa WNW 11.0 mph /  17.7 km/h 11.0 mph /  17.7 km/h 62 % 0.00 in /  0 mm 323 W/m2
15:45 54.1 °F /  12.3 °C 40.9 °F /  4.9 °C 29.84 in /  1010.4 hPa West 10.0 mph /  16.1 km/h 22.0 mph /  35.4 km/h 61 % 0.00 in /  0 mm 237 W/m2
15:55 53.9 °F /  12.2 °C 40.8 °F /  4.9 °C 29.84 in /  1010.4 hPa WSW 12.0 mph /  19.3 km/h 22.0 mph /  35.4 km/h 61 % 0.00 in /  0 mm 227 W/m2
16:00 53.6 °F /  12 °C 40.9 °F /  4.9 °C 29.84 in /  1010.4 hPa WNW 12.0 mph /  19.3 km/h 12.0 mph /  19.3 km/h 62 % 0.00 in /  0 mm 146 W/m2
16:05 53.3 °F /  11.8 °C 41.0 °F /  5 °C 29.84 in /  1010.4 hPa WSW 10.0 mph /  16.1 km/h 22.0 mph /  35.4 km/h 63 % 0.00 in /  0 mm 91 W/m2
16:15 52.7 °F /  11.5 °C 41.3 °F /  5.2 °C 29.84 in /  1010.4 hPa WSW 10.0 mph /  16.1 km/h 22.0 mph /  35.4 km/h 65 % 0.00 in /  0 mm 174 W/m2
16:20 52.6 °F /  11.4 °C 41.2 °F /  5.1 °C 29.85 in /  1010.7 hPa West 9.0 mph /  14.5 km/h 9.0 mph /  14.5 km/h 65 % 0.00 in /  0 mm 220 W/m2
16:25 52.5 °F /  11.4 °C 41.5 °F /  5.3 °C 29.85 in /  1010.7 hPa WSW 10.0 mph /  16.1 km/h 10.0 mph /  16.1 km/h 66 % 0.00 in /  0 mm 209 W/m2
16:30 52.5 °F /  11.4 °C 41.9 °F /  5.5 °C 29.85 in /  1010.7 hPa SW 9.0 mph /  14.5 km/h 9.0 mph /  14.5 km/h 67 % 0.00 in /  0 mm 192 W/m2
16:35 52.5 °F /  11.4 °C 42.2 °F /  5.7 °C 29.85 in /  1010.7 hPa West 7.0 mph /  11.3 km/h 22.0 mph /  35.4 km/h 68 % 0.00 in /  0 mm 171 W/m2
16:40 52.3 °F /  11.3 °C 42.4 °F /  5.8 °C 29.84 in /  1010.4 hPa WNW 7.0 mph /  11.3 km/h 22.0 mph /  35.4 km/h 69 % 0.00 in /  0 mm 171 W/m2
16:50 52.0 °F /  11.1 °C 42.5 °F /  5.8 °C 29.85 in /  1010.7 hPa WSW 9.0 mph /  14.5 km/h 9.0 mph /  14.5 km/h 70 % 0.00 in /  0 mm 72 W/m2
16:55 51.8 °F /  11 °C 41.9 °F /  5.5 °C 29.85 in /  1010.7 hPa SW 10.0 mph /  16.1 km/h 18.0 mph /  29 km/h 69 % 0.00 in /  0 mm 46 W/m2
17:00 51.6 °F /  10.9 °C 41.8 °F /  5.4 °C 29.85 in /  1010.7 hPa West 10.0 mph /  16.1 km/h 10.0 mph /  16.1 km/h 69 % 0.00 in /  0 mm 47 W/m2
17:05 51.5 °F /  10.8 °C 42.0 °F /  5.6 °C 29.85 in /  1010.7 hPa WSW 11.0 mph /  17.7 km/h 15.0 mph /  24.1 km/h 70 % 0.00 in /  0 mm 51 W/m2
17:10 51.3 °F /  10.7 °C 41.8 °F /  5.4 °C 29.86 in /  1011.1 hPa West 11.0 mph /  17.7 km/h 22.0 mph /  35.4 km/h 70 % 0.00 in /  0 mm 37 W/m2
17:20 50.9 °F /  10.5 °C 41.8 °F /  5.4 °C 29.86 in /  1011.1 hPa West 7.0 mph /  11.3 km/h 22.0 mph /  35.4 km/h 71 % 0.00 in /  0 mm 21 W/m2
17:30 50.6 °F /  10.3 °C 41.9 °F /  5.5 °C 29.86 in /  1011.1 hPa West 8.0 mph /  12.9 km/h 22.0 mph /  35.4 km/h 72 % 0.00 in /  0 mm 19 W/m2
17:35 50.4 °F /  10.2 °C 41.7 °F /  5.4 °C 29.86 in /  1011.1 hPa WSW 8.0 mph /  12.9 km/h 22.0 mph /  35.4 km/h 72 % 0.00 in /  0 mm 18 W/m2
17:40 50.2 °F /  10.1 °C 41.9 °F /  5.5 °C 29.86 in /  1011.1 hPa WSW 6.0 mph /  9.7 km/h 6.0 mph /  9.7 km/h 73 % 0.00 in /  0 mm 14 W/m2
17:45 50.1 °F /  10.1 °C 41.8 °F /  5.4 °C 29.87 in /  1011.4 hPa WSW 5.0 mph /  8 km/h 22.0 mph /  35.4 km/h 73 % 0.00 in /  0 mm 11 W/m2
17:55 49.7 °F /  9.8 °C 41.7 °F /  5.4 °C 29.87 in /  1011.4 hPa WSW 7.0 mph /  11.3 km/h 22.0 mph /  35.4 km/h 74 % 0.00 in /  0 mm 5 W/m2
18:00 49.6 °F /  9.8 °C 41.7 °F /  5.4 °C 29.87 in /  1011.4 hPa WSW 7.0 mph /  11.3 km/h 7.0 mph /  11.3 km/h 74 % 0.00 in /  0 mm 0 W/m2
18:05 49.5 °F /  9.7 °C 41.6 °F /  5.3 °C 29.87 in /  1011.4 hPa WSW 6.0 mph /  9.7 km/h 22.0 mph /  35.4 km/h 74 % 0.00 in /  0 mm 0 W/m2
18:10 49.3 °F /  9.6 °C 41.7 °F /  5.4 °C 29.87 in /  1011.4 hPa WSW 5.0 mph /  8 km/h 22.0 mph /  35.4 km/h 75 % 0.00 in /  0 mm 0 W/m2
18:15 49.1 °F /  9.5 °C 41.9 °F /  5.5 °C 29.87 in /  1011.4 hPa SW 5.0 mph /  8 km/h 22.0 mph /  35.4 km/h 76 % 0.00 in /  0 mm 0 W/m2
18:20 49.0 °F /  9.4 °C 41.8 °F /  5.4 °C 29.88 in /  1011.7 hPa West 4.0 mph /  6.4 km/h 4.0 mph /  6.4 km/h 76 % 0.00 in /  0 mm 0 W/m2
18:30 48.6 °F /  9.2 °C 41.7 °F /  5.4 °C 29.88 in /  1011.7 hPa WSW 1.0 mph /  1.6 km/h 1.0 mph /  1.6 km/h 77 % 0.00 in /  0 mm 0 W/m2
18:35 48.4 °F /  9.1 °C 41.9 °F /  5.5 °C 29.88 in /  1011.7 hPa WSW 1.0 mph /  1.6 km/h 22.0 mph /  35.4 km/h 78 % 0.00 in /  0 mm 0 W/m2
18:40 48.1 °F /  8.9 °C 41.6 °F /  5.3 °C 29.89 in /  1012.1 hPa WSW 1.0 mph /  1.6 km/h 22.0 mph /  35.4 km/h 78 % 0.00 in /  0 mm 0 W/m2
18:45 47.8 °F /  8.8 °C 41.6 °F /  5.3 °C 29.88 in /  1011.7 hPa SSE 2.0 mph /  3.2 km/h 22.0 mph /  35.4 km/h 79 % 0.00 in /  0 mm 0 W/m2
18:55 47.3 °F /  8.5 °C 41.4 °F /  5.2 °C 29.88 in /  1011.7 hPa SSE 1.0 mph /  1.6 km/h 22.0 mph /  35.4 km/h 80 % 0.00 in /  0 mm 0 W/m2
19:00 47.0 °F /  8.3 °C 41.1 °F /  5.1 °C 29.88 in /  1011.7 hPa SSE 1.0 mph /  1.6 km/h 22.0 mph /  35.4 km/h 80 % 0.00 in /  0 mm 0 W/m2
19:10 46.5 °F /  8.1 °C 41.3 °F /  5.2 °C 29.89 in /  1012.1 hPa SSE 1.0 mph /  1.6 km/h 1.0 mph /  1.6 km/h 82 % 0.00 in /  0 mm 0 W/m2
19:15 46.4 °F /  8 °C 41.2 °F /  5.1 °C 29.89 in /  1012.1 hPa South 1.0 mph /  1.6 km/h 22.0 mph /  35.4 km/h 82 % 0.00 in /  0 mm 0 W/m2
19:20 46.3 °F /  7.9 °C 41.1 °F /  5.1 °C 29.89 in /  1012.1 hPa South 1.0 mph /  1.6 km/h 1.0 mph /  1.6 km/h 82 % 0.00 in /  0 mm 0 W/m2
19:25 46.4 °F /  8 °C 41.5 °F /  5.3 °C 29.89 in /  1012.1 hPa South 1.0 mph /  1.6 km/h 22.0 mph /  35.4 km/h 83 % 0.00 in /  0 mm 0 W/m2
19:35 46.4 °F /  8 °C 41.2 °F /  5.1 °C 29.89 in /  1012.1 hPa WSW 2.0 mph /  3.2 km/h 22.0 mph /  35.4 km/h 82 % 0.00 in /  0 mm 0 W/m2
19:40 46.6 °F /  8.1 °C 41.7 °F /  5.4 °C 29.89 in /  1012.1 hPa SW 3.0 mph /  4.8 km/h 22.0 mph /  35.4 km/h 83 % 0.00 in /  0 mm 0 W/m2
19:45 46.7 °F /  8.2 °C 41.5 °F /  5.3 °C 29.89 in /  1012.1 hPa WNW 4.0 mph /  6.4 km/h 22.0 mph /  35.4 km/h 82 % 0.00 in /  0 mm 0 W/m2
19:50 46.7 °F /  8.2 °C 41.5 °F /  5.3 °C 29.89 in /  1012.1 hPa WNW 3.0 mph /  4.8 km/h 22.0 mph /  35.4 km/h 82 % 0.00 in /  0 mm 0 W/m2
19:55 46.6 °F /  8.1 °C 41.4 °F /  5.2 °C 29.90 in /  1012.4 hPa WNW 3.0 mph /  4.8 km/h 22.0 mph /  35.4 km/h 82 % 0.00 in /  0 mm 0 W/m2
20:00 46.9 °F /  8.3 °C 41.7 °F /  5.4 °C 29.90 in /  1012.4 hPa West 4.0 mph /  6.4 km/h 4.0 mph /  6.4 km/h 82 % 0.00 in /  0 mm 0 W/m2
20:10 47.0 °F /  8.3 °C 41.8 °F /  5.4 °C 29.89 in /  1012.1 hPa WNW 4.0 mph /  6.4 km/h 22.0 mph /  35.4 km/h 82 % 0.00 in /  0 mm 0 W/m2
20:15 46.9 °F /  8.3 °C 41.7 °F /  5.4 °C 29.89 in /  1012.1 hPa NW 3.0 mph /  4.8 km/h 22.0 mph /  35.4 km/h 82 % 0.00 in /  0 mm 0 W/m2
20:20 46.8 °F /  8.2 °C 41.9 °F /  5.5 °C 29.89 in /  1012.1 hPa WNW 3.0 mph /  4.8 km/h 3.0 mph /  4.8 km/h 83 % 0.00 in /  0 mm 0 W/m2
20:30 46.6 °F /  8.1 °C 41.7 °F /  5.4 °C 29.90 in /  1012.4 hPa ESE 2.0 mph /  3.2 km/h 22.0 mph /  35.4 km/h 83 % 0.00 in /  0 mm 0 W/m2
20:35 46.4 °F /  8 °C 41.2 °F /  5.1 °C 29.89 in /  1012.1 hPa ESE 2.0 mph /  3.2 km/h 22.0 mph /  35.4 km/h 82 % 0.00 in /  0 mm 0 W/m2
20:45 46.0 °F /  7.8 °C 41.1 °F /  5.1 °C 29.90 in /  1012.4 hPa ESE 2.0 mph /  3.2 km/h 22.0 mph /  35.4 km/h 83 % 0.00 in /  0 mm 0 W/m2
20:50 45.9 °F /  7.7 °C 41.0 °F /  5 °C 29.90 in /  1012.4 hPa ESE 1.0 mph /  1.6 km/h 1.0 mph /  1.6 km/h 83 % 0.00 in /  0 mm 0 W/m2
20:55 45.7 °F /  7.6 °C 40.8 °F /  4.9 °C 29.90 in /  1012.4 hPa Calm   22.0 mph /  35.4 km/h 83 % 0.00 in /  0 mm 0 W/m2
21:00 45.5 °F /  7.5 °C 40.6 °F /  4.8 °C 29.89 in /  1012.1 hPa Calm   22.0 mph /  35.4 km/h 83 % 0.00 in /  0 mm 0 W/m2
21:05 45.5 °F /  7.5 °C 40.9 °F /  4.9 °C 29.89 in /  1012.1 hPa SW 1.0 mph /  1.6 km/h 22.0 mph /  35.4 km/h 84 % 0.00 in /  0 mm 0 W/m2
21:15 46.1 °F /  7.8 °C 41.5 °F /  5.3 °C 29.90 in /  1012.4 hPa SW 4.0 mph /  6.4 km/h 22.0 mph /  35.4 km/h 84 % 0.00 in /  0 mm 0 W/m2
21:20 46.3 °F /  7.9 °C 41.7 °F /  5.4 °C 29.90 in /  1012.4 hPa WSW 4.0 mph /  6.4 km/h 22.0 mph /  35.4 km/h 84 % 0.00 in /  0 mm 0 W/m2
21:25 46.4 °F /  8 °C 41.5 °F /  5.3 °C 29.90 in /  1012.4 hPa WSW 5.0 mph /  8 km/h 22.0 mph /  35.4 km/h 83 % 0.00 in /  0 mm 0 W/m2
21:30 46.5 °F /  8.1 °C 41.6 °F /  5.3 °C 29.89 in /  1012.1 hPa SW 5.0 mph /  8 km/h 5.0 mph /  8 km/h 83 % 0.00 in /  0 mm 0 W/m2
21:35 46.7 °F /  8.2 °C 41.8 °F /  5.4 °C 29.89 in /  1012.1 hPa West 5.0 mph /  8 km/h 22.0 mph /  35.4 km/h 83 % 0.00 in /  0 mm 0 W/m2
21:40 46.6 °F /  8.1 °C 41.4 °F /  5.2 °C 29.89 in /  1012.1 hPa West 3.0 mph /  4.8 km/h 3.0 mph /  4.8 km/h 82 % 0.00 in /  0 mm 0 W/m2
21:50 46.5 °F /  8.1 °C 41.3 °F /  5.2 °C 29.90 in /  1012.4 hPa WSW 3.0 mph /  4.8 km/h 3.0 mph /  4.8 km/h 82 % 0.00 in /  0 mm 0 W/m2
22:00 46.0 °F /  7.8 °C 40.8 °F /  4.9 °C 29.90 in /  1012.4 hPa WSW 1.0 mph /  1.6 km/h 1.0 mph /  1.6 km/h 82 % 0.00 in /  0 mm 0 W/m2
22:05 45.7 °F /  7.6 °C 40.5 °F /  4.7 °C 29.90 in /  1012.4 hPa WSW 1.0 mph /  1.6 km/h 22.0 mph /  35.4 km/h 82 % 0.00 in /  0 mm 0 W/m2
22:10 45.3 °F /  7.4 °C 40.1 °F /  4.5 °C 29.90 in /  1012.4 hPa Calm   22.0 mph /  35.4 km/h 82 % 0.00 in /  0 mm 0 W/m2
22:15 45.0 °F /  7.2 °C 40.5 °F /  4.7 °C 29.90 in /  1012.4 hPa Calm   22.0 mph /  35.4 km/h 84 % 0.00 in /  0 mm 0 W/m2
22:25 44.6 °F /  7 °C 40.1 °F /  4.5 °C 29.90 in /  1012.4 hPa ESE 1.0 mph /  1.6 km/h 22.0 mph /  35.4 km/h 84 % 0.00 in /  0 mm 0 W/m2
22:30 44.5 °F /  6.9 °C 40.3 °F /  4.6 °C 29.91 in /  1012.8 hPa ESE 2.0 mph /  3.2 km/h 2.0 mph /  3.2 km/h 85 % 0.00 in /  0 mm 0 W/m2
22:35 44.3 °F /  6.8 °C 40.1 °F /  4.5 °C 29.91 in /  1012.8 hPa ESE 2.0 mph /  3.2 km/h 22.0 mph /  35.4 km/h 85 % 0.00 in /  0 mm 0 W/m2
22:40 44.1 °F /  6.7 °C 39.9 °F /  4.4 °C 29.91 in /  1012.8 hPa ESE 1.0 mph /  1.6 km/h 1.0 mph /  1.6 km/h 85 % 0.00 in /  0 mm 0 W/m2
22:45 44.0 °F /  6.7 °C 40.1 °F /  4.5 °C 29.91 in /  1012.8 hPa Calm   22.0 mph /  35.4 km/h 86 % 0.00 in /  0 mm 0 W/m2
22:55 44.0 °F /  6.7 °C 40.1 °F /  4.5 °C 29.91 in /  1012.8 hPa SSW 1.0 mph /  1.6 km/h 22.0 mph /  35.4 km/h 86 % 0.00 in /  0 mm 0 W/m2
23:00 44.2 °F /  6.8 °C 40.3 °F /  4.6 °C 29.91 in /  1012.8 hPa SW 2.0 mph /  3.2 km/h 22.0 mph /  35.4 km/h 86 % 0.00 in /  0 mm 0 W/m2
23:05 44.9 °F /  7.2 °C 41.0 °F /  5 °C 29.91 in /  1012.8 hPa WSW 5.0 mph /  8 km/h 22.0 mph /  35.4 km/h 86 % 0.00 in /  0 mm 0 W/m2
23:10 45.4 °F /  7.4 °C 41.2 °F /  5.1 °C 29.90 in /  1012.4 hPa WSW 8.0 mph /  12.9 km/h 8.0 mph /  12.9 km/h 85 % 0.00 in /  0 mm 0 W/m2
23:15 45.7 °F /  7.6 °C 41.1 °F /  5.1 °C 29.91 in /  1012.8 hPa WSW 8.0 mph /  12.9 km/h 22.0 mph /  35.4 km/h 84 % 0.00 in /  0 mm 0 W/m2
23:25 46.5 °F /  8.1 °C 41.3 °F /  5.2 °C 29.91 in /  1012.8 hPa WSW 10.0 mph /  16.1 km/h 22.0 mph /  35.4 km/h 82 % 0.00 in /  0 mm 0 W/m2
23:35 47.2 °F /  8.4 °C 41.3 °F /  5.2 °C 29.91 in /  1012.8 hPa WSW 11.0 mph /  17.7 km/h 14.0 mph /  22.5 km/h 80 % 0.00 in /  0 mm 0 W/m2
23:40 47.3 °F /  8.5 °C 41.4 °F /  5.2 °C 29.91 in /  1012.8 hPa WSW 10.0 mph /  16.1 km/h 22.0 mph /  35.4 km/h 80 % 0.00 in /  0 mm 0 W/m2
23:45 47.5 °F /  8.6 °C 41.3 °F /  5.2 °C 29.91 in /  1012.8 hPa WSW 11.0 mph /  17.7 km/h 22.0 mph /  35.4 km/h 79 % 0.00 in /  0 mm 0 W/m2
23:50 47.5 °F /  8.6 °C 41.3 °F /  5.2 °C 29.91 in /  1012.8 hPa WSW 10.0 mph /  16.1 km/h 10.0 mph /  16.1 km/h 79 % 0.00 in /  0 mm 0 W/m2
23:55 47.2 °F /  8.4 °C 41.0 °F /  5 °C 29.91 in /  1012.8 hPa WSW 8.0 mph /  12.9 km/h 22.0 mph /  35.4 km/h 79 % 0.00 in /  0 mm 0 W/m2
Delerius-Weather
Compliments of Weather Underground - 2 mb

Data updates at regular intervals.